createdAt,value
2024-04-18T00:00:11.784Z,198.73
2024-04-18T00:01:11.967Z,198.39
2024-04-18T00:02:11.907Z,199.44
2024-04-18T00:03:12.016Z,199.80
2024-04-18T00:04:12.128Z,198.98
2024-04-18T00:05:12.276Z,199.64
2024-04-18T00:06:12.154Z,199.94
2024-04-18T00:07:12.222Z,197.86
2024-04-18T00:08:12.251Z,196.26
2024-04-18T00:09:12.323Z,197.50
2024-04-18T00:10:12.375Z,198.27
2024-04-18T00:11:12.464Z,198.30
2024-04-18T00:12:12.604Z,199.19
2024-04-18T00:13:12.589Z,198.04
2024-04-18T00:14:12.615Z,197.39
2024-04-18T00:15:12.720Z,200.38
2024-04-18T00:16:12.773Z,198.12
2024-04-18T00:17:12.853Z,197.21
2024-04-18T00:18:12.912Z,199.41
2024-04-18T00:19:12.901Z,199.26
2024-04-18T00:20:12.992Z,197.50
2024-04-18T00:21:13.069Z,198.47
2024-04-18T00:22:13.135Z,199.60
2024-04-18T00:23:13.141Z,197.10
2024-04-18T00:24:13.237Z,198.12
2024-04-18T00:25:13.288Z,198.29
2024-04-18T00:26:13.293Z,199.14
2024-04-18T00:27:13.452Z,199.35
2024-04-18T00:28:13.486Z,197.36
2024-04-18T00:29:13.526Z,198.44
2024-04-18T00:30:13.599Z,197.54
2024-04-18T00:31:13.643Z,195.73
2024-04-18T00:32:13.756Z,197.03
2024-04-18T00:33:13.775Z,196.63
2024-04-18T00:34:13.847Z,197.62
2024-04-18T00:35:13.877Z,196.45
2024-04-18T00:36:13.995Z,197.29
2024-04-18T00:37:14.077Z,196.97
2024-04-18T00:38:14.168Z,197.30
2024-04-18T00:39:14.180Z,197.48
2024-04-18T00:40:14.231Z,197.27
2024-04-18T00:41:14.294Z,199.36
2024-04-18T00:42:14.443Z,197.23
2024-04-18T00:43:14.442Z,196.29
2024-04-18T00:44:14.476Z,198.03
2024-04-18T00:45:14.577Z,198.87
2024-04-18T00:46:14.637Z,198.17
2024-04-18T00:47:14.663Z,197.99
2024-04-18T00:48:14.915Z,196.10
2024-04-18T00:49:14.808Z,200.00
2024-04-18T00:50:14.821Z,198.38
2024-04-18T00:51:14.897Z,197.54
2024-04-18T00:52:15.080Z,199.56
2024-04-18T00:53:15.054Z,198.72
2024-04-18T00:54:15.129Z,197.57
2024-04-18T00:55:16.007Z,198.54
2024-04-18T00:56:18.138Z,198.42
2024-04-18T00:57:15.239Z,197.91
2024-04-18T00:58:15.185Z,198.70
2024-04-18T00:59:15.220Z,198.54
2024-04-18T01:00:15.191Z,196.22
2024-04-18T01:01:15.283Z,197.15
2024-04-18T01:02:15.208Z,197.99
2024-04-18T01:03:15.280Z,199.10
2024-04-18T01:04:15.528Z,198.71
2024-04-18T01:05:15.255Z,200.00
2024-04-18T01:06:15.222Z,199.10
2024-04-18T01:07:15.251Z,199.30
2024-04-18T01:08:15.305Z,199.23
2024-04-18T01:09:15.241Z,197.13
2024-04-18T01:10:15.213Z,198.73
2024-04-18T01:11:15.244Z,199.39
2024-04-18T01:12:15.233Z,198.35
2024-04-18T01:13:15.199Z,197.95
2024-04-18T01:14:15.242Z,197.48
2024-04-18T01:15:15.285Z,197.22
2024-04-18T01:16:15.214Z,197.38
2024-04-18T01:17:15.251Z,197.92
2024-04-18T01:18:15.401Z,197.98
2024-04-18T01:19:15.268Z,198.12
2024-04-18T01:20:15.222Z,197.80
2024-04-18T01:21:15.266Z,198.84
2024-04-18T01:22:15.243Z,197.83
2024-04-18T01:23:15.227Z,196.71
2024-04-18T01:24:15.250Z,200.04
2024-04-18T01:25:15.275Z,198.44
2024-04-18T01:26:15.215Z,198.26
2024-04-18T01:27:15.267Z,197.57
2024-04-18T01:28:15.232Z,197.89
2024-04-18T01:29:15.246Z,198.46
2024-04-18T01:30:15.264Z,199.34
2024-04-18T01:31:15.230Z,197.70
2024-04-18T01:32:15.241Z,197.87
2024-04-18T01:33:15.439Z,196.98
2024-04-18T01:34:15.488Z,196.24
2024-04-18T01:35:15.444Z,197.97
2024-04-18T01:36:15.524Z,198.28
2024-04-18T01:37:15.579Z,197.60
2024-04-18T01:38:15.620Z,197.38
2024-04-18T01:39:15.698Z,198.21
2024-04-18T01:40:15.768Z,198.01
2024-04-18T01:41:15.789Z,198.56
2024-04-18T01:42:15.912Z,199.04
2024-04-18T01:43:15.925Z,198.22
2024-04-18T01:44:16.081Z,197.07
2024-04-18T01:45:16.114Z,198.93
2024-04-18T01:46:16.134Z,198.72
2024-04-18T01:47:16.232Z,197.93
2024-04-18T01:48:16.364Z,198.05
2024-04-18T01:49:16.406Z,198.89
2024-04-18T01:50:16.501Z,198.23
2024-04-18T01:51:16.533Z,198.88
2024-04-18T01:52:16.573Z,197.72
2024-04-18T01:53:16.586Z,197.34
2024-04-18T01:54:16.726Z,197.55
2024-04-18T01:55:16.733Z,197.61
2024-04-18T01:56:16.800Z,198.81
2024-04-18T01:57:16.875Z,198.84
2024-04-18T01:58:16.932Z,198.02
2024-04-18T01:59:17.641Z,200.00
2024-04-18T02:00:17.081Z,198.49
2024-04-18T02:01:17.209Z,198.77
2024-04-18T02:02:17.201Z,199.19
2024-04-18T02:03:17.316Z,198.95
2024-04-18T02:04:17.411Z,197.66
2024-04-18T02:05:17.345Z,197.76
2024-04-18T02:06:17.453Z,198.55
2024-04-18T02:07:17.508Z,198.67
2024-04-18T02:08:17.571Z,198.56
2024-04-18T02:09:17.673Z,196.94
2024-04-18T02:10:17.689Z,198.57
2024-04-18T02:11:17.801Z,198.50
2024-04-18T02:12:17.874Z,197.88
2024-04-18T02:13:17.894Z,198.69
2024-04-18T02:14:17.979Z,199.36
2024-04-18T02:15:18.044Z,198.28
2024-04-18T02:16:18.101Z,197.65
2024-04-18T02:17:18.176Z,199.16
2024-04-18T02:18:18.277Z,196.92
2024-04-18T02:19:18.307Z,197.40
2024-04-18T02:20:18.352Z,199.45
2024-04-18T02:21:18.439Z,196.52
2024-04-18T02:22:18.478Z,197.75
2024-04-18T02:23:18.528Z,197.75
2024-04-18T02:24:18.576Z,197.41
2024-04-18T02:25:18.691Z,198.16
2024-04-18T02:26:18.792Z,196.76
2024-04-18T02:27:18.785Z,198.54
2024-04-18T02:28:18.878Z,197.13
2024-04-18T02:29:18.906Z,197.88
2024-04-18T02:30:19.104Z,196.19
2024-04-18T02:31:19.023Z,197.98
2024-04-18T02:32:19.189Z,197.13
2024-04-18T02:33:19.217Z,197.24
2024-04-18T02:34:19.224Z,198.58
2024-04-18T02:35:19.309Z,198.02
2024-04-18T02:36:19.434Z,197.48
2024-04-18T02:37:19.396Z,197.02
2024-04-18T02:38:19.491Z,193.70
2024-04-18T02:39:19.573Z,197.56
2024-04-18T02:40:19.664Z,198.21
2024-04-18T02:41:19.669Z,196.76
2024-04-18T02:42:19.734Z,197.76
2024-04-18T02:43:19.843Z,197.75
2024-04-18T02:44:19.900Z,197.72
2024-04-18T02:45:19.958Z,196.81
2024-04-18T02:46:19.991Z,198.66
2024-04-18T02:47:20.071Z,196.50
2024-04-18T02:48:20.192Z,196.81
2024-04-18T02:49:20.208Z,198.15
2024-04-18T02:50:20.282Z,198.37
2024-04-18T02:51:20.288Z,196.12
2024-04-18T02:52:20.403Z,197.20
2024-04-18T02:53:20.483Z,195.96
2024-04-18T02:54:20.536Z,198.00
2024-04-18T02:55:20.558Z,198.12
2024-04-18T02:56:20.645Z,196.38
2024-04-18T02:57:20.764Z,197.45
2024-04-18T02:58:20.772Z,198.05
2024-04-18T02:59:20.822Z,197.85
2024-04-18T03:00:20.924Z,198.27
2024-04-18T03:01:20.981Z,198.42
2024-04-18T03:02:21.017Z,197.75
2024-04-18T03:03:21.112Z,199.41
2024-04-18T03:04:21.200Z,196.45
2024-04-18T03:05:21.213Z,197.04
2024-04-18T03:06:21.303Z,197.74
2024-04-18T03:07:21.338Z,197.51
2024-04-18T03:08:21.442Z,198.59
2024-04-18T03:09:21.538Z,197.55
2024-04-18T03:10:21.511Z,198.98
2024-04-18T03:11:21.666Z,198.95
2024-04-18T03:12:21.699Z,198.14
2024-04-18T03:13:21.754Z,199.41
2024-04-18T03:14:21.844Z,198.04
2024-04-18T03:15:21.910Z,196.49
2024-04-18T03:16:21.887Z,198.12
2024-04-18T03:17:22.032Z,198.82
2024-04-18T03:18:22.120Z,197.79
2024-04-18T03:19:22.122Z,199.40
2024-04-18T03:20:22.162Z,198.38
2024-04-18T03:21:22.252Z,197.81
2024-04-18T03:22:22.308Z,197.46
2024-04-18T03:23:22.374Z,197.45
2024-04-18T03:24:22.483Z,197.55
2024-04-18T03:25:22.479Z,198.04
2024-04-18T03:26:22.660Z,199.94
2024-04-18T03:27:22.714Z,196.90
2024-04-18T03:28:22.719Z,196.14
2024-04-18T03:29:22.787Z,196.61
2024-04-18T03:30:22.844Z,195.23
2024-04-18T03:31:22.883Z,196.47
2024-04-18T03:32:23.033Z,197.70
2024-04-18T03:33:23.114Z,198.47
2024-04-18T03:34:23.075Z,196.36
2024-04-18T03:35:23.159Z,197.28
2024-04-18T03:36:23.297Z,197.75
2024-04-18T03:37:23.263Z,198.39
2024-04-18T03:38:23.395Z,200.00
2024-04-18T03:39:23.437Z,199.42
2024-04-18T03:40:23.514Z,197.46
2024-04-18T03:41:23.511Z,198.90
2024-04-18T03:42:23.684Z,198.05
2024-04-18T03:43:23.657Z,198.11
2024-04-18T03:44:23.730Z,196.27
2024-04-18T03:45:23.951Z,198.74
2024-04-18T03:46:23.832Z,199.62
2024-04-18T03:47:23.965Z,197.78
2024-04-18T03:48:24.060Z,199.25
2024-04-18T03:49:24.055Z,197.13
2024-04-18T03:50:24.171Z,200.50
2024-04-18T03:51:24.303Z,197.54
2024-04-18T03:52:24.270Z,198.98
2024-04-18T03:53:24.405Z,198.26
2024-04-18T03:54:24.416Z,197.73
2024-04-18T03:55:24.540Z,197.93
2024-04-18T03:56:24.530Z,198.20
2024-04-18T03:57:24.588Z,199.12
2024-04-18T03:58:24.644Z,199.27
2024-04-18T03:59:24.718Z,199.23
2024-04-18T04:00:24.846Z,198.37
2024-04-18T04:01:32.033Z,50.00
2024-04-18T04:02:31.993Z,50.00
2024-04-18T04:03:31.996Z,50.00
2024-04-18T04:04:32.013Z,50.00
2024-04-18T04:05:31.919Z,50.00
2024-04-18T04:06:33.611Z,50.00
2024-04-18T04:07:31.944Z,50.01
2024-04-18T04:08:31.954Z,47.29
2024-04-18T04:09:31.959Z,42.95
2024-04-18T04:10:31.973Z,37.20
2024-04-18T04:11:32.000Z,35.30
2024-04-18T04:12:31.987Z,48.90
2024-04-18T04:13:31.950Z,51.87
2024-04-18T04:14:32.121Z,50.00
2024-04-18T04:15:32.029Z,50.40
2024-04-18T04:16:31.925Z,51.05
2024-04-18T04:17:31.977Z,49.89
2024-04-18T04:18:31.998Z,50.00
2024-04-18T04:19:32.142Z,50.73
2024-04-18T04:20:31.928Z,50.15
2024-04-18T04:21:31.998Z,50.98
2024-04-18T04:22:33.565Z,52.26
2024-04-18T04:23:31.934Z,51.97
2024-04-18T04:24:31.971Z,50.00
2024-04-18T04:25:31.967Z,51.29
2024-04-18T04:26:31.956Z,52.69
2024-04-18T04:27:31.998Z,50.95
2024-04-18T04:28:31.968Z,52.02
2024-04-18T04:29:32.024Z,50.00
2024-04-18T04:30:39.189Z,50.00
2024-04-18T04:31:46.296Z,50.00
2024-04-18T04:32:46.327Z,50.00
2024-04-18T04:33:46.326Z,50.00
2024-04-18T04:34:46.292Z,50.00
2024-04-18T04:35:46.272Z,50.00
2024-04-18T04:36:46.276Z,50.45
2024-04-18T04:37:46.271Z,49.36
2024-04-18T04:38:46.311Z,53.62
2024-04-18T04:39:46.347Z,53.09
2024-04-18T04:40:46.329Z,52.85
2024-04-18T04:41:46.331Z,50.22
2024-04-18T04:42:46.380Z,51.05
2024-04-18T04:43:46.306Z,50.76
2024-04-18T04:44:46.319Z,52.10
2024-04-18T04:45:46.383Z,50.93
2024-04-18T04:46:46.264Z,50.00
2024-04-18T04:47:46.326Z,51.29
2024-04-18T04:48:46.318Z,53.43
2024-04-18T04:49:46.334Z,52.82
2024-04-18T04:50:46.308Z,50.33
2024-04-18T04:51:46.367Z,53.65
2024-04-18T04:52:46.281Z,53.42
2024-04-18T04:53:46.315Z,53.52
2024-04-18T04:54:46.414Z,53.79
2024-04-18T04:55:46.293Z,53.94
2024-04-18T04:56:46.352Z,53.49
2024-04-18T04:57:46.334Z,54.07
2024-04-18T04:58:46.307Z,56.30
2024-04-18T04:59:46.285Z,55.54
2024-04-18T05:00:46.314Z,57.15
2024-04-18T05:01:46.351Z,57.70
2024-04-18T05:02:48.791Z,55.09
2024-04-18T05:03:46.370Z,55.20
2024-04-18T05:04:46.362Z,55.47
2024-04-18T05:05:46.304Z,56.27
2024-04-18T05:06:46.327Z,55.83
2024-04-18T05:07:46.318Z,57.83
2024-04-18T05:08:46.311Z,59.62
2024-04-18T05:09:46.352Z,59.10
2024-04-18T05:10:46.375Z,59.76
2024-04-18T05:11:46.309Z,59.35
2024-04-18T05:12:46.382Z,60.76
2024-04-18T05:13:46.344Z,60.04
2024-04-18T05:14:46.306Z,60.74
2024-04-18T05:15:46.348Z,61.52
2024-04-18T05:16:46.383Z,59.74
2024-04-18T05:17:46.345Z,62.14
2024-04-18T05:18:46.323Z,61.87
2024-04-18T05:19:46.362Z,59.66
2024-04-18T05:20:46.345Z,60.78
2024-04-18T05:21:46.411Z,65.81
2024-04-18T05:22:46.399Z,61.85
2024-04-18T05:23:46.356Z,62.98
2024-04-18T05:24:46.338Z,62.05
2024-04-18T05:25:46.433Z,62.80
2024-04-18T05:26:46.344Z,62.22
2024-04-18T05:27:46.651Z,63.43
2024-04-18T05:28:46.340Z,62.55
2024-04-18T05:29:46.356Z,62.09
2024-04-18T05:30:46.395Z,62.08
2024-04-18T05:31:46.368Z,63.27
2024-04-18T05:32:46.597Z,64.39
2024-04-18T05:33:46.460Z,63.79
2024-04-18T05:34:46.340Z,63.37
2024-04-18T05:35:46.401Z,61.11
2024-04-18T05:36:46.358Z,58.06
2024-04-18T05:37:46.373Z,57.01
2024-04-18T05:38:46.415Z,54.14
2024-04-18T05:39:46.430Z,50.00
2024-04-18T05:40:46.377Z,50.00
2024-04-18T05:41:46.348Z,52.75
2024-04-18T05:42:46.509Z,55.17
2024-04-18T05:43:46.358Z,54.51
2024-04-18T05:44:46.393Z,52.73
2024-04-18T05:45:46.375Z,54.65
2024-04-18T05:46:46.411Z,54.54
2024-04-18T05:47:46.413Z,51.99
2024-04-18T05:48:46.445Z,51.16
2024-04-18T05:49:46.402Z,51.84
2024-04-18T05:50:46.374Z,51.47
2024-04-18T05:51:46.386Z,56.71
2024-04-18T05:52:46.383Z,57.50
2024-04-18T05:53:46.487Z,61.84
2024-04-18T05:54:46.403Z,61.84
2024-04-18T05:55:46.532Z,68.35
2024-04-18T05:56:46.525Z,69.98
2024-04-18T05:57:46.619Z,73.30
2024-04-18T05:58:46.413Z,74.21
2024-04-18T05:59:46.378Z,79.44
2024-04-18T06:00:46.457Z,81.94
2024-04-18T06:01:46.480Z,83.14
2024-04-18T06:02:46.441Z,90.73
2024-04-18T06:03:46.439Z,91.16
2024-04-18T06:04:46.484Z,91.87
2024-04-18T06:05:46.421Z,98.69
2024-04-18T06:06:46.464Z,101.12
2024-04-18T06:07:46.856Z,101.39
2024-04-18T06:08:46.415Z,108.08
2024-04-18T06:09:46.440Z,110.30
2024-04-18T06:10:46.397Z,115.49
2024-04-18T06:11:46.418Z,118.97
2024-04-18T06:12:46.448Z,121.11
2024-04-18T06:13:46.454Z,123.33
2024-04-18T06:14:46.416Z,125.95
2024-04-18T06:15:46.436Z,129.27
2024-04-18T06:16:46.695Z,132.52
2024-04-18T06:17:46.526Z,132.84
2024-04-18T06:18:46.718Z,137.12
2024-04-18T06:19:46.493Z,143.08
2024-04-18T06:20:46.615Z,148.47
2024-04-18T06:21:46.755Z,150.69
2024-04-18T06:22:46.564Z,153.90
2024-04-18T06:23:46.605Z,155.52
2024-04-18T06:24:48.823Z,155.27
2024-04-18T06:25:46.745Z,157.07
2024-04-18T06:26:46.695Z,155.79
2024-04-18T06:27:46.794Z,158.23
2024-04-18T06:28:47.062Z,159.59
2024-04-18T06:29:46.738Z,159.79
2024-04-18T06:30:46.879Z,162.78
2024-04-18T06:31:46.994Z,164.27
2024-04-18T06:32:47.048Z,168.12
2024-04-18T06:33:46.902Z,166.08
2024-04-18T06:34:46.876Z,169.56
2024-04-18T06:35:46.982Z,169.19
2024-04-18T06:36:47.026Z,170.23
2024-04-18T06:37:47.029Z,171.35
2024-04-18T06:38:47.153Z,171.12
2024-04-18T06:39:47.352Z,174.86
2024-04-18T06:40:47.238Z,175.08
2024-04-18T06:41:47.312Z,173.16
2024-04-18T06:42:47.391Z,178.11
2024-04-18T06:43:47.387Z,178.92
2024-04-18T06:44:48.367Z,174.98
2024-04-18T06:45:47.400Z,171.71
2024-04-18T06:46:53.224Z,167.60
2024-04-18T06:47:48.667Z,167.22
2024-04-18T06:48:47.555Z,160.23
2024-04-18T06:49:47.418Z,152.21
2024-04-18T06:50:47.469Z,147.55
2024-04-18T06:51:47.418Z,141.95
2024-04-18T06:52:47.433Z,131.27
2024-04-18T06:53:47.407Z,126.78
2024-04-18T06:54:47.487Z,120.54
2024-04-18T06:55:47.396Z,119.04
2024-04-18T06:56:47.470Z,115.03
2024-04-18T06:57:47.491Z,109.75
2024-04-18T06:58:47.425Z,109.77
2024-04-18T06:59:47.425Z,103.64
2024-04-18T07:00:48.281Z,100.01
2024-04-18T07:01:47.539Z,97.98
2024-04-18T07:02:47.486Z,93.58
2024-04-18T07:03:47.695Z,86.51
2024-04-18T07:04:47.850Z,78.97
2024-04-18T07:05:47.674Z,70.13
2024-04-18T07:06:47.820Z,58.91
2024-04-18T07:07:47.846Z,50.74
2024-04-18T07:08:47.846Z,50.00
2024-04-18T07:09:49.857Z,50.00
2024-04-18T07:10:48.030Z,50.00
2024-04-18T07:11:48.038Z,50.27
2024-04-18T07:12:48.126Z,50.08
2024-04-18T07:13:48.137Z,50.00
2024-04-18T07:14:48.166Z,50.65
2024-04-18T07:15:48.242Z,50.40
2024-04-18T07:16:48.594Z,50.59
2024-04-18T07:17:49.191Z,51.24
2024-04-18T07:18:48.515Z,50.49
2024-04-18T07:19:48.452Z,52.29
2024-04-18T07:20:48.405Z,54.88
2024-04-18T07:21:48.559Z,59.30
2024-04-18T07:22:48.505Z,56.97
2024-04-18T07:23:48.480Z,52.07
2024-04-18T07:24:48.518Z,50.28
2024-04-18T07:25:48.578Z,50.00
2024-04-18T07:26:48.764Z,50.00
2024-04-18T07:27:48.722Z,50.28
2024-04-18T07:28:48.816Z,50.50
2024-04-18T07:29:48.719Z,50.00
2024-04-18T07:30:48.869Z,50.00
2024-04-18T07:31:48.843Z,55.01
2024-04-18T07:32:48.965Z,54.79
2024-04-18T07:33:48.919Z,60.21
2024-04-18T07:34:48.882Z,57.05
2024-04-18T07:35:48.871Z,51.21
2024-04-18T07:36:49.667Z,51.83
2024-04-18T07:37:51.780Z,51.62
2024-04-18T07:38:49.429Z,53.99
2024-04-18T07:39:48.940Z,54.36
2024-04-18T07:40:48.850Z,57.78
2024-04-18T07:41:48.856Z,58.26
2024-04-18T07:42:48.952Z,62.03
2024-04-18T07:43:48.910Z,66.53
2024-04-18T07:44:48.894Z,73.03
2024-04-18T07:45:48.912Z,76.50
2024-04-18T07:46:48.920Z,78.99
2024-04-18T07:47:49.008Z,79.74
2024-04-18T07:48:49.014Z,82.71
2024-04-18T07:49:49.630Z,86.68
2024-04-18T07:50:48.900Z,87.82
2024-04-18T07:51:49.810Z,90.01
2024-04-18T07:52:56.854Z,90.63
2024-04-18T07:53:50.017Z,90.66
2024-04-18T07:54:48.982Z,90.63
2024-04-18T07:55:48.881Z,91.32
2024-04-18T07:56:49.299Z,93.18
2024-04-18T07:57:49.459Z,95.66
2024-04-18T07:58:49.657Z,95.54
2024-04-18T07:59:49.769Z,98.00
2024-04-18T08:00:50.123Z,97.70
2024-04-18T08:01:50.435Z,99.00
2024-04-18T08:02:50.801Z,97.64
2024-04-18T08:04:02.413Z,99.28
2024-04-18T08:04:55.208Z,99.46
2024-04-18T08:05:51.766Z,99.60
2024-04-18T08:06:51.075Z,99.57
2024-04-18T08:07:51.342Z,99.59
2024-04-18T08:08:51.472Z,99.46
2024-04-18T08:09:52.696Z,99.55
2024-04-18T08:12:53.211Z,99.69
2024-04-18T08:13:52.843Z,99.72
2024-04-18T08:14:53.342Z,99.79
2024-04-18T08:16:48.960Z,100.06
2024-04-18T08:17:49.005Z,102.31
2024-04-18T08:18:48.985Z,105.72
2024-04-18T08:19:48.987Z,111.09
2024-04-18T08:20:48.984Z,116.28
2024-04-18T08:21:48.960Z,118.73
2024-04-18T08:22:48.979Z,127.75
2024-04-18T08:23:48.979Z,135.26
2024-04-18T08:24:48.988Z,143.95
2024-04-18T08:25:49.138Z,150.23
2024-04-18T08:26:48.949Z,150.83
2024-04-18T08:27:48.984Z,151.40
2024-04-18T08:28:49.065Z,150.16
2024-04-18T08:29:48.958Z,151.07
2024-04-18T08:30:48.922Z,149.58
2024-04-18T08:31:48.970Z,149.91
2024-04-18T08:32:49.025Z,148.11
2024-04-18T08:33:57.847Z,141.97
2024-04-18T08:34:50.044Z,141.03
2024-04-18T08:35:48.962Z,131.72
2024-04-18T08:36:48.978Z,122.77
2024-04-18T08:37:48.974Z,115.95
2024-04-18T08:38:48.986Z,111.28
2024-04-18T08:39:49.146Z,103.29
2024-04-18T08:40:48.961Z,92.11
2024-04-18T08:41:48.972Z,91.57
2024-04-18T08:42:49.053Z,83.09
2024-04-18T08:43:52.222Z,74.46
2024-04-18T08:44:48.953Z,74.10
2024-04-18T08:45:48.956Z,68.80
2024-04-18T08:46:48.986Z,58.53
2024-04-18T08:47:49.201Z,50.12
2024-04-18T08:48:49.116Z,50.27
2024-04-18T08:49:48.999Z,50.68
2024-04-18T08:50:49.019Z,50.78
2024-04-18T08:51:49.051Z,50.00
2024-04-18T08:52:49.007Z,51.83
2024-04-18T08:53:49.014Z,54.71
2024-04-18T08:54:49.045Z,51.45
2024-04-18T08:55:48.968Z,53.02
2024-04-18T08:56:49.018Z,53.43
2024-04-18T08:57:49.030Z,57.19
2024-04-18T08:58:49.020Z,56.05
2024-04-18T08:59:49.028Z,57.29
2024-04-18T09:00:49.052Z,57.85
2024-04-18T09:01:49.010Z,61.47
2024-04-18T09:02:49.124Z,62.88
2024-04-18T09:03:49.038Z,61.96
2024-04-18T09:04:49.032Z,63.61
2024-04-18T09:05:49.010Z,66.76
2024-04-18T09:06:49.008Z,73.69
2024-04-18T09:07:49.009Z,74.88
2024-04-18T09:08:49.012Z,74.07
2024-04-18T09:09:49.023Z,73.40
2024-04-18T09:10:49.140Z,67.15
2024-04-18T09:11:49.019Z,69.03
2024-04-18T09:12:49.003Z,69.63
2024-04-18T09:13:49.057Z,65.13
2024-04-18T09:14:49.057Z,61.60
2024-04-18T09:15:49.058Z,58.04
2024-04-18T09:16:49.050Z,53.27
2024-04-18T09:17:49.080Z,50.41
2024-04-18T09:18:49.130Z,52.30
2024-04-18T09:19:49.059Z,50.00
2024-04-18T09:20:49.040Z,50.00
2024-04-18T09:21:49.069Z,51.05
2024-04-18T09:22:49.044Z,50.01
2024-04-18T09:23:49.026Z,50.42
2024-04-18T09:24:49.019Z,50.67
2024-04-18T09:25:49.051Z,52.60
2024-04-18T09:26:49.036Z,54.78
2024-04-18T09:27:50.026Z,54.85
2024-04-18T09:28:49.033Z,55.41
2024-04-18T09:29:49.071Z,56.13
2024-04-18T09:30:49.027Z,56.77
2024-04-18T09:31:49.048Z,51.20
2024-04-18T09:32:49.140Z,55.23
2024-04-18T09:33:49.193Z,56.46
2024-04-18T09:34:49.097Z,63.61
2024-04-18T09:35:49.031Z,61.68
2024-04-18T09:36:49.147Z,59.60
2024-04-18T09:37:53.535Z,65.34
2024-04-18T09:38:50.043Z,65.39
2024-04-18T09:39:49.106Z,66.58
2024-04-18T09:40:49.020Z,69.32
2024-04-18T09:41:49.108Z,75.33
2024-04-18T09:42:49.046Z,84.28
2024-04-18T09:43:49.066Z,84.26
2024-04-18T09:44:49.068Z,89.36
2024-04-18T09:45:49.055Z,81.83
2024-04-18T09:46:50.603Z,79.94
2024-04-18T09:47:49.161Z,83.81
2024-04-18T09:48:49.155Z,83.73
2024-04-18T09:49:51.029Z,85.16
2024-04-18T09:50:49.056Z,86.71
2024-04-18T09:51:49.034Z,86.40
2024-04-18T09:52:49.149Z,79.62
2024-04-18T09:53:49.075Z,77.39
2024-04-18T09:54:49.059Z,79.10
2024-04-18T09:55:49.096Z,83.56
2024-04-18T09:56:49.047Z,79.61
2024-04-18T09:57:49.086Z,78.26
2024-04-18T09:58:49.067Z,85.35
2024-04-18T09:59:49.070Z,88.34
2024-04-18T10:00:49.080Z,89.49
2024-04-18T10:01:49.089Z,95.42
2024-04-18T10:02:49.634Z,87.76
2024-04-18T10:03:49.284Z,94.58
2024-04-18T10:04:49.204Z,97.37
2024-04-18T10:05:49.080Z,100.54
2024-04-18T10:06:49.485Z,100.96
2024-04-18T10:07:49.122Z,98.85
2024-04-18T10:08:49.121Z,93.26
2024-04-18T10:09:49.129Z,100.79
2024-04-18T10:10:49.591Z,101.31
2024-04-18T10:11:49.162Z,105.86
2024-04-18T10:12:50.085Z,109.33
2024-04-18T10:13:49.118Z,115.07
2024-04-18T10:14:49.633Z,122.03
2024-04-18T10:15:49.202Z,123.85
2024-04-18T10:16:49.246Z,125.91
2024-04-18T10:17:49.448Z,126.53
2024-04-18T10:18:51.599Z,133.16
2024-04-18T10:19:49.627Z,133.20
2024-04-18T10:20:49.997Z,134.41
2024-04-18T10:22:01.067Z,136.30
2024-04-18T10:22:50.459Z,133.49
2024-04-18T10:23:49.588Z,131.07
2024-04-18T10:24:49.449Z,115.29
2024-04-18T10:25:49.510Z,101.61
2024-04-18T10:26:49.414Z,79.35
2024-04-18T10:27:49.382Z,56.49
2024-04-18T10:28:49.457Z,50.00
2024-04-18T10:29:49.680Z,50.12
2024-04-18T10:30:49.486Z,50.44
2024-04-18T10:31:49.439Z,51.16
2024-04-18T10:32:49.788Z,50.95
2024-04-18T10:33:49.632Z,52.67
2024-04-18T10:34:49.608Z,58.35
2024-04-18T10:35:50.156Z,65.79
2024-04-18T10:36:49.755Z,68.17
2024-04-18T10:37:49.855Z,62.96
2024-04-18T10:38:49.930Z,65.16
2024-04-18T10:39:49.963Z,69.80
2024-04-18T10:40:50.029Z,71.28
2024-04-18T10:41:50.103Z,66.21
2024-04-18T10:42:50.144Z,62.97
2024-04-18T10:43:50.236Z,57.92
2024-04-18T10:44:50.304Z,54.39
2024-04-18T10:45:50.333Z,55.02
2024-04-18T10:46:50.410Z,51.95
2024-04-18T10:47:50.583Z,50.00
2024-04-18T10:48:50.598Z,50.50
2024-04-18T10:49:50.563Z,55.09
2024-04-18T10:50:50.605Z,54.65
2024-04-18T10:51:50.722Z,52.24
2024-04-18T10:52:51.123Z,52.44
2024-04-18T10:53:50.753Z,54.23
2024-04-18T10:54:50.835Z,54.95
2024-04-18T10:55:50.874Z,51.90
2024-04-18T10:56:50.924Z,53.42
2024-04-18T10:57:51.034Z,54.10
2024-04-18T10:58:51.014Z,53.06
2024-04-18T10:59:51.099Z,50.98
2024-04-18T11:00:51.134Z,54.31
2024-04-18T11:01:51.202Z,50.71
2024-04-18T11:02:51.659Z,50.60
2024-04-18T11:03:51.550Z,51.65
2024-04-18T11:04:51.311Z,54.00
2024-04-18T11:05:51.369Z,54.50
2024-04-18T11:06:51.402Z,51.81
2024-04-18T11:07:51.489Z,51.15
2024-04-18T11:08:51.509Z,54.61
2024-04-18T11:09:51.582Z,55.96
2024-04-18T11:10:51.646Z,61.50
2024-04-18T11:11:51.708Z,69.77
2024-04-18T11:12:51.746Z,75.16
2024-04-18T11:13:52.164Z,83.57
2024-04-18T11:14:51.823Z,91.05
2024-04-18T11:15:51.873Z,96.82
2024-04-18T11:16:52.169Z,103.38
2024-04-18T11:17:52.097Z,110.17
2024-04-18T11:18:52.173Z,117.29
2024-04-18T11:19:52.070Z,122.59
2024-04-18T11:20:52.144Z,130.63
2024-04-18T11:21:52.651Z,131.99
2024-04-18T11:22:57.279Z,135.03
2024-04-18T11:23:53.266Z,135.21
2024-04-18T11:24:52.372Z,136.06
2024-04-18T11:25:52.272Z,136.96
2024-04-18T11:26:52.253Z,138.55
2024-04-18T11:27:52.254Z,143.09
2024-04-18T11:28:52.278Z,144.49
2024-04-18T11:29:52.240Z,132.21
2024-04-18T11:30:52.236Z,115.51
2024-04-18T11:31:52.261Z,105.91
2024-04-18T11:32:52.359Z,98.35
2024-04-18T11:33:52.446Z,97.53
2024-04-18T11:35:00.089Z,89.04
2024-04-18T11:35:53.415Z,82.15
2024-04-18T11:36:52.423Z,74.57
2024-04-18T11:37:52.417Z,65.48
2024-04-18T11:38:52.395Z,53.57
2024-04-18T11:39:52.411Z,43.47
2024-04-18T11:40:52.488Z,50.27
2024-04-18T11:41:52.436Z,50.00
2024-04-18T11:42:52.457Z,50.44
2024-04-18T11:43:52.496Z,50.91
2024-04-18T11:44:52.558Z,50.00
2024-04-18T11:45:52.612Z,50.43
2024-04-18T11:46:52.693Z,50.00
2024-04-18T11:47:52.815Z,53.91
2024-04-18T11:48:52.920Z,50.98
2024-04-18T11:49:52.908Z,48.46
2024-04-18T11:50:52.971Z,51.12
2024-04-18T11:51:53.036Z,51.04
2024-04-18T11:52:53.114Z,51.56
2024-04-18T11:53:53.156Z,50.56
2024-04-18T11:54:53.232Z,51.17
2024-04-18T11:55:54.804Z,53.79
2024-04-18T11:56:53.251Z,54.51
2024-04-18T11:57:53.299Z,56.80
2024-04-18T11:58:53.568Z,62.67
2024-04-18T11:59:53.300Z,70.61
2024-04-18T12:00:53.332Z,77.25
2024-04-18T12:01:53.286Z,81.20
2024-04-18T12:02:53.299Z,87.79
2024-04-18T12:03:53.394Z,98.95
2024-04-18T12:04:53.374Z,101.86
2024-04-18T12:05:53.295Z,116.42
2024-04-18T12:06:54.045Z,137.09
2024-04-18T12:07:53.273Z,162.10
2024-04-18T12:08:55.096Z,178.06
2024-04-18T12:09:53.260Z,175.25
2024-04-18T12:10:53.325Z,171.75
2024-04-18T12:11:53.408Z,163.49
2024-04-18T12:12:53.377Z,154.64
2024-04-18T12:13:53.447Z,146.20
2024-04-18T12:14:53.462Z,132.11
2024-04-18T12:15:53.611Z,123.57
2024-04-18T12:16:54.431Z,113.25
2024-04-18T12:17:53.481Z,110.04
2024-04-18T12:18:53.530Z,113.08
2024-04-18T12:19:53.490Z,125.47
2024-04-18T12:20:53.475Z,132.90
2024-04-18T12:21:53.731Z,137.75
2024-04-18T12:22:53.573Z,140.64
2024-04-18T12:23:53.600Z,149.48
2024-04-18T12:24:53.682Z,151.65
2024-04-18T12:25:53.746Z,155.65
2024-04-18T12:26:53.790Z,160.26
2024-04-18T12:27:53.819Z,168.50
2024-04-18T12:28:53.924Z,187.63
2024-04-18T12:29:53.947Z,203.66
2024-04-18T12:30:54.094Z,200.00
2024-04-18T12:31:54.044Z,198.82
2024-04-18T12:32:54.165Z,198.74
2024-04-18T12:33:54.197Z,199.83
2024-04-18T12:34:54.080Z,197.89
2024-04-18T12:35:54.129Z,199.96
2024-04-18T12:36:54.168Z,199.81
2024-04-18T12:37:54.157Z,197.52
2024-04-18T12:38:54.182Z,199.48
2024-04-18T12:39:54.274Z,199.81
2024-04-18T12:40:54.243Z,199.41
2024-04-18T12:41:54.225Z,193.14
2024-04-18T12:42:54.276Z,193.19